createdAt,value
2023-04-09T00:01:21.725Z,12.68
2023-04-09T00:04:29.751Z,13.23
2023-04-09T00:07:33.288Z,14.18
2023-04-09T00:10:42.500Z,13.60
2023-04-09T00:13:46.190Z,13.88
2023-04-09T00:17:01.039Z,13.68
2023-04-09T00:20:05.133Z,13.60
2023-04-09T00:23:10.271Z,12.48
2023-04-09T00:26:14.352Z,13.07
2023-04-09T00:29:18.148Z,14.10
2023-04-09T00:32:24.625Z,13.88
2023-04-09T00:35:34.045Z,12.82
2023-04-09T00:38:40.871Z,13.93
2023-04-09T00:41:51.655Z,13.07
2023-04-09T00:45:03.410Z,12.55
2023-04-09T00:51:49.054Z,12.40
2023-04-09T00:55:39.827Z,12.00
2023-04-09T01:16:39.274Z,9.35
2023-04-09T01:21:24.048Z,11.63
2023-04-09T01:43:56.950Z,11.00
2023-04-09T01:48:06.349Z,12.38
2023-04-09T01:55:48.750Z,10.30
2023-04-09T01:59:09.858Z,11.68
2023-04-09T02:02:43.222Z,11.57
2023-04-09T02:06:18.921Z,12.13
2023-04-09T02:09:52.088Z,11.32
2023-04-09T02:13:36.656Z,11.40
2023-04-09T02:17:13.348Z,11.80
2023-04-09T02:20:25.884Z,10.87
2023-04-09T02:23:53.575Z,11.07
2023-04-09T02:27:14.782Z,10.93
2023-04-09T02:30:35.276Z,11.05
2023-04-09T02:34:06.689Z,10.25
2023-04-09T02:37:21.122Z,10.60
2023-04-09T02:40:28.288Z,9.85
2023-04-09T02:43:34.741Z,11.52
2023-04-09T02:46:41.395Z,10.27
2023-04-09T02:49:47.736Z,10.38
2023-04-09T02:52:54.507Z,10.53
2023-04-09T02:56:26.909Z,10.63
2023-04-09T02:59:33.404Z,10.88
2023-04-09T03:02:42.924Z,10.38
2023-04-09T03:06:04.118Z,11.05
2023-04-09T03:09:10.666Z,9.93
2023-04-09T03:12:33.143Z,10.65
2023-04-09T03:15:42.833Z,9.85
2023-04-09T03:19:08.059Z,6.85
2023-04-09T03:22:22.480Z,9.70
2023-04-09T03:25:38.862Z,9.77
2023-04-09T03:28:50.827Z,11.00
2023-04-09T03:32:21.340Z,10.73
2023-04-09T03:35:46.267Z,10.52
2023-04-09T03:43:08.025Z,11.70
2023-04-09T03:46:42.451Z,10.48
2023-04-09T04:03:20.970Z,13.57
2023-04-09T04:10:06.317Z,12.18
2023-04-09T04:13:25.908Z,12.40
2023-04-09T04:16:50.453Z,13.50
2023-04-09T04:20:20.648Z,12.40
2023-04-09T04:23:26.937Z,12.88
2023-04-09T04:27:29.977Z,13.55
2023-04-09T04:39:20.170Z,11.03
2023-04-09T05:20:18.026Z,10.20
2023-04-09T06:17:09.116Z,9.23
2023-04-09T06:26:35.998Z,9.80
2023-04-09T06:35:32.677Z,7.82
2023-04-09T06:45:14.403Z,7.30
2023-04-09T06:57:38.619Z,6.90
2023-04-09T07:42:13.424Z,8.98
2023-04-09T09:10:34.365Z,7.53
2023-04-09T09:17:41.948Z,8.10
2023-04-09T09:21:54.044Z,7.57
2023-04-09T09:25:03.693Z,7.28
2023-04-09T09:28:18.980Z,6.63
2023-04-09T09:31:34.616Z,7.53
2023-04-09T09:35:31.016Z,7.38
2023-04-09T09:39:07.680Z,7.20
2023-04-09T09:42:37.826Z,6.53
2023-04-09T09:45:53.041Z,6.70
2023-04-09T09:49:59.238Z,4.97
2023-04-09T09:53:14.092Z,6.88
2023-04-09T10:00:37.626Z,7.22
2023-04-09T10:04:08.254Z,7.22
2023-04-09T10:12:11.210Z,7.65
2023-04-09T10:15:56.473Z,6.80
2023-04-09T10:23:10.291Z,7.88
2023-04-09T10:26:22.566Z,7.77
2023-04-09T10:29:34.044Z,7.50
2023-04-09T10:32:59.207Z,7.30
2023-04-09T10:36:55.266Z,7.90
2023-04-09T10:40:32.919Z,8.18
2023-04-09T10:45:02.697Z,7.93
2023-04-09T10:48:35.253Z,8.20
2023-04-09T10:52:31.112Z,7.88
2023-04-09T10:56:10.599Z,8.77
2023-04-09T11:12:50.303Z,8.13
2023-04-09T11:16:49.532Z,7.15
2023-04-09T11:24:26.657Z,8.27
2023-04-09T11:32:51.566Z,8.88
2023-04-09T11:36:42.433Z,9.45
2023-04-09T11:47:49.153Z,8.27
2023-04-09T11:51:18.843Z,8.10
2023-04-09T11:57:04.892Z,8.95
2023-04-09T11:59:21.422Z,9.32
2023-04-09T12:06:35.776Z,8.65
2023-04-09T12:14:22.368Z,8.57
2023-04-09T12:22:31.514Z,8.63
2023-04-09T12:26:07.186Z,8.25
2023-04-09T12:29:38.351Z,9.52
2023-04-09T12:32:51.379Z,9.88
2023-04-09T12:40:33.644Z,9.27
2023-04-09T12:44:02.348Z,9.20
2023-04-09T12:47:59.112Z,9.95
2023-04-09T12:51:29.852Z,9.13
2023-04-09T12:56:00.643Z,8.82
2023-04-09T12:59:11.172Z,9.03
2023-04-09T13:02:22.459Z,9.52
2023-04-09T13:05:34.022Z,8.93
2023-04-09T13:09:26.317Z,8.50
2023-04-09T13:13:10.205Z,8.65
2023-04-09T13:16:44.836Z,8.20
2023-04-09T13:19:54.047Z,6.40
2023-04-09T13:27:25.200Z,6.75
2023-04-09T13:30:45.194Z,7.30
2023-04-09T13:34:01.537Z,6.87
2023-04-09T13:37:45.280Z,7.18
2023-04-09T13:41:01.944Z,5.72
2023-04-09T13:44:19.837Z,5.88
2023-04-09T13:47:32.362Z,8.32
2023-04-09T13:50:47.694Z,7.07
2023-04-09T13:57:21.262Z,7.40
2023-04-09T14:00:32.011Z,8.23
2023-04-09T14:03:44.962Z,8.38
2023-04-09T14:06:56.793Z,7.87
2023-04-09T14:10:00.199Z,6.88
2023-04-09T14:13:10.102Z,8.07
2023-04-09T14:16:16.842Z,7.97
2023-04-09T14:19:20.239Z,7.60
2023-04-09T14:22:24.545Z,7.27
2023-04-09T14:25:27.517Z,7.95
2023-04-09T14:28:30.282Z,8.75
2023-04-09T14:31:33.068Z,7.88
2023-04-09T14:34:42.469Z,7.88
2023-04-09T14:37:58.643Z,7.77
2023-04-09T14:41:10.540Z,7.40
2023-04-09T14:44:13.599Z,7.05
2023-04-09T14:47:18.980Z,6.78
2023-04-09T14:50:27.745Z,7.85
2023-04-09T14:53:33.570Z,7.50
2023-04-09T14:56:36.660Z,7.50
2023-04-09T14:59:39.520Z,6.85
2023-04-09T15:02:46.478Z,6.45
2023-04-09T15:05:54.988Z,7.35
2023-04-09T15:09:14.242Z,7.87
2023-04-09T15:12:22.822Z,7.50
2023-04-09T15:15:34.000Z,8.20
2023-04-09T15:18:42.993Z,7.15
2023-04-09T15:21:58.546Z,7.30
2023-04-09T15:25:52.793Z,7.60
2023-04-09T15:29:37.620Z,8.45
2023-04-09T15:32:53.446Z,7.65
2023-04-09T15:36:08.863Z,8.15
2023-04-09T15:39:31.560Z,6.97
2023-04-09T15:42:46.917Z,8.60
2023-04-09T15:46:01.202Z,7.47
2023-04-09T15:49:12.738Z,8.27
2023-04-09T15:52:28.168Z,8.02
2023-04-09T15:56:27.114Z,8.38
2023-04-09T16:00:14.743Z,8.27
2023-04-09T16:03:42.972Z,7.85
2023-04-09T16:06:54.623Z,8.30
2023-04-09T16:10:13.800Z,8.55
2023-04-09T16:17:50.338Z,7.37
2023-04-09T16:21:51.721Z,7.10
2023-04-09T16:33:47.330Z,7.70
2023-04-09T16:41:09.596Z,7.72
2023-04-09T16:48:16.616Z,8.13
2023-04-09T16:51:45.509Z,7.90
2023-04-09T16:55:22.780Z,8.20
2023-04-09T16:59:37.064Z,8.20
2023-04-09T17:03:14.489Z,8.90
2023-04-09T17:10:49.501Z,8.80
2023-04-09T17:21:41.568Z,9.20
2023-04-09T17:25:13.012Z,8.05
2023-04-09T17:28:42.188Z,8.63
2023-04-09T17:31:54.340Z,7.30
2023-04-09T17:35:58.017Z,7.70
2023-04-09T17:57:48.479Z,8.77
2023-04-09T18:01:26.622Z,7.95
2023-04-09T18:04:38.741Z,8.98
2023-04-09T18:07:55.057Z,8.27
2023-04-09T18:11:21.989Z,9.07
2023-04-09T18:14:47.572Z,8.45
2023-04-09T18:18:05.327Z,6.35
2023-04-09T18:21:34.686Z,8.40
2023-04-09T18:25:29.723Z,8.13
2023-04-09T18:28:40.055Z,7.90
2023-04-09T18:32:00.641Z,8.40
2023-04-09T18:35:25.274Z,8.20
2023-04-09T18:38:32.469Z,8.18
2023-04-09T18:41:43.424Z,8.67
2023-04-09T18:44:54.527Z,8.80
2023-04-09T18:47:57.598Z,9.35
2023-04-09T18:54:24.463Z,8.40
2023-04-09T18:57:43.000Z,8.90
2023-04-09T19:00:57.742Z,8.53
2023-04-09T19:04:28.920Z,8.90
2023-04-09T19:07:47.291Z,8.70
2023-04-09T19:11:19.121Z,8.65
2023-04-09T19:14:48.580Z,8.93
2023-04-09T19:22:37.457Z,9.20
2023-04-09T19:34:39.513Z,9.73
2023-04-09T19:41:36.339Z,9.25
2023-04-09T19:48:22.612Z,9.63
2023-04-09T19:52:27.262Z,9.50
2023-04-09T19:55:59.629Z,10.03
2023-04-09T20:00:04.494Z,10.50
2023-04-09T20:03:46.163Z,9.30
2023-04-09T20:11:26.101Z,9.83
2023-04-09T20:15:18.143Z,11.27
2023-04-09T20:18:56.041Z,10.57
2023-04-09T20:22:31.333Z,10.63
2023-04-09T20:26:10.543Z,9.85
2023-04-09T21:09:41.067Z,9.50
2023-04-09T21:17:22.141Z,10.25
2023-04-09T21:21:28.085Z,10.30
2023-04-09T21:25:34.504Z,10.32
2023-04-09T21:34:09.660Z,10.30
2023-04-09T22:05:42.219Z,10.68
2023-04-09T22:13:26.221Z,10.10
2023-04-09T22:16:43.085Z,10.85
2023-04-09T22:20:30.698Z,10.50
2023-04-09T22:23:53.526Z,10.48
2023-04-09T22:28:05.693Z,10.17
2023-04-09T22:36:12.992Z,10.90
2023-04-09T22:40:29.613Z,10.25
2023-04-09T22:55:17.468Z,10.07
2023-04-09T23:03:06.352Z,10.52
2023-04-09T23:06:38.494Z,10.65
2023-04-09T23:14:27.679Z,10.57
2023-04-09T23:17:43.096Z,10.00
2023-04-09T23:21:05.219Z,10.38
2023-04-09T23:24:44.014Z,10.60
2023-04-09T23:28:10.248Z,9.70
2023-04-09T23:32:03.518Z,10.93
2023-04-09T23:53:27.814Z,9.03
2023-04-09T23:57:26.350Z,10.68
